Aeroporto :
LOGIN :

Iscrizione | Disclaimer

   EN    FR    IT 

 










Sommario :    VFR   VFR Marginale   IFR   IFR Intensivo   IFR Molto Intensivo
Visibilità : 
Base nubi : 
>= 8 km
>= 3000ft
5 / 8 km
1000 / 3000 ft
1500m / 5 km
500 / 1000 ft
800 / 1500m
200 / 500 ft
< 800m
< 200 ft
Simboli :   Temporali  Nebbia  Neve Forte  Precipitazioni Forti  Vento > 20 kt
SIGMETs :   Varie  Temporali  Ghiacco  Turbolenza  Onda orograficha  Ceneri Vulcaniche







- Altitudine del aeroporto : 459 ft
- Codice IATA : CER
- Carte del aeroporto


LFRC - Cherbourg / Maupertus

ULTIMO METAR :
  • 262100Z AUTO 00000KT CAVOK 07/05 Q1016

METARs OBSOLETI :
  • 262030Z AUTO 21002KT CAVOK 08/05 Q1017
  • 262000Z AUTO 25003KT CAVOK 08/05 Q1017
  • 261930Z AUTO 26003KT CAVOK 08/05 Q1017
  • 261900Z AUTO 27004KT CAVOK 09/05 Q1017
  • 261830Z AUTO 27005KT 9999 FEW026 SCT180 BKN210 10/05 Q1017

TAF TAF LFRC
Valido dal 26 a 15 ore il 27 a 00 ore UTC


261400Z 2615/2624 26010KT 9999 BKN040
BECMG 2616/2618 26005KT
Nessun NOTAM noto per questo aeroporto.



MetMap, La meteo Aeronautica in un colpo d'occhio ! - Copyright ORBIFLY Dicembre 2007 - Disclaimer

ORBIFLY MET'MAP TEAM :

Programmazione e sviluppo : Alexandra Zaïnal
Concezione e sviluppo : Baudouin d'Aumeries
Co-Programmazione e sviluppo : Marc-Olivier Méhu
Supporto tecnico e logistico : Manuel Goepfert
Aiuto per la traduzione : Arnaldo La Scala

Contatto : metmap@orbifly.com




FONTI E CREDITI :

   NOAA